sensor_id;sensor_type;location;lat;lon;timestamp;temperature;humidity
11836;DHT22;5977;51.972;7.640;2024-02-14T00:00:23;18.30;81.50
11836;DHT22;5977;51.972;7.640;2024-02-14T00:02:51;18.30;81.50
11836;DHT22;5977;51.972;7.640;2024-02-14T00:05:19;18.30;81.50
11836;DHT22;5977;51.972;7.640;2024-02-14T00:07:47;18.30;81.40
11836;DHT22;5977;51.972;7.640;2024-02-14T00:10:15;18.30;81.40
11836;DHT22;5977;51.972;7.640;2024-02-14T00:12:44;18.30;81.40
11836;DHT22;5977;51.972;7.640;2024-02-14T00:15:13;18.30;81.30
11836;DHT22;5977;51.972;7.640;2024-02-14T00:17:41;18.30;81.40
11836;DHT22;5977;51.972;7.640;2024-02-14T00:20:10;18.30;81.30
11836;DHT22;5977;51.972;7.640;2024-02-14T00:22:39;18.30;81.30
11836;DHT22;5977;51.972;7.640;2024-02-14T00:25:07;18.30;81.30
11836;DHT22;5977;51.972;7.640;2024-02-14T00:27:35;18.30;81.30
11836;DHT22;5977;51.972;7.640;2024-02-14T00:30:06;18.30;81.40
11836;DHT22;5977;51.972;7.640;2024-02-14T00:32:34;18.40;81.20
11836;DHT22;5977;51.972;7.640;2024-02-14T00:35:03;18.30;81.40
11836;DHT22;5977;51.972;7.640;2024-02-14T00:37:31;18.30;81.30
11836;DHT22;5977;51.972;7.640;2024-02-14T00:40:00;18.30;81.40
11836;DHT22;5977;51.972;7.640;2024-02-14T00:42:28;18.30;81.30
11836;DHT22;5977;51.972;7.640;2024-02-14T00:44:56;18.30;81.40
11836;DHT22;5977;51.972;7.640;2024-02-14T00:47:25;18.30;81.40
11836;DHT22;5977;51.972;7.640;2024-02-14T00:49:53;18.30;81.20
11836;DHT22;5977;51.972;7.640;2024-02-14T00:52:21;18.20;81.30
11836;DHT22;5977;51.972;7.640;2024-02-14T00:54:49;18.30;81.30
11836;DHT22;5977;51.972;7.640;2024-02-14T00:57:17;18.30;81.40
11836;DHT22;5977;51.972;7.640;2024-02-14T00:59:46;18.30;81.30
11836;DHT22;5977;51.972;7.640;2024-02-14T01:02:14;18.30;81.30
11836;DHT22;5977;51.972;7.640;2024-02-14T01:04:43;18.30;81.30
11836;DHT22;5977;51.972;7.640;2024-02-14T01:07:11;18.20;81.10
11836;DHT22;5977;51.972;7.640;2024-02-14T01:09:39;18.30;81.30
11836;DHT22;5977;51.972;7.640;2024-02-14T01:12:07;18.30;81.30
11836;DHT22;5977;51.972;7.640;2024-02-14T01:14:35;18.30;81.30
11836;DHT22;5977;51.972;7.640;2024-02-14T01:17:03;18.30;81.30
11836;DHT22;5977;51.972;7.640;2024-02-14T01:19:31;18.30;81.20
11836;DHT22;5977;51.972;7.640;2024-02-14T01:22:01;18.20;81.20
11836;DHT22;5977;51.972;7.640;2024-02-14T01:24:30;18.30;81.10
11836;DHT22;5977;51.972;7.640;2024-02-14T01:26:57;18.30;81.20
11836;DHT22;5977;51.972;7.640;2024-02-14T01:29:26;18.30;81.20
11836;DHT22;5977;51.972;7.640;2024-02-14T01:31:54;18.20;81.10
11836;DHT22;5977;51.972;7.640;2024-02-14T01:34:22;18.20;81.10
11836;DHT22;5977;51.972;7.640;2024-02-14T01:36:50;18.20;81.10
11836;DHT22;5977;51.972;7.640;2024-02-14T01:39:20;18.20;81.10
11836;DHT22;5977;51.972;7.640;2024-02-14T01:41:48;18.30;81.80
11836;DHT22;5977;51.972;7.640;2024-02-14T01:44:17;18.20;81.10
11836;DHT22;5977;51.972;7.640;2024-02-14T01:46:45;18.30;81.10
11836;DHT22;5977;51.972;7.640;2024-02-14T01:49:13;18.20;81.10
11836;DHT22;5977;51.972;7.640;2024-02-14T01:51:43;18.20;81.10
11836;DHT22;5977;51.972;7.640;2024-02-14T01:54:12;18.20;81.10
11836;DHT22;5977;51.972;7.640;2024-02-14T01:56:43;18.30;81.20
11836;DHT22;5977;51.972;7.640;2024-02-14T01:59:12;18.30;81.10
11836;DHT22;5977;51.972;7.640;2024-02-14T02:01:42;18.20;81.10
11836;DHT22;5977;51.972;7.640;2024-02-14T02:04:10;18.20;81.10
11836;DHT22;5977;51.972;7.640;2024-02-14T02:06:38;18.20;81.20
11836;DHT22;5977;51.972;7.640;2024-02-14T02:09:07;18.30;81.20
11836;DHT22;5977;51.972;7.640;2024-02-14T02:11:45;18.30;81.20
11836;DHT22;5977;51.972;7.640;2024-02-14T02:14:14;18.20;80.80
11836;DHT22;5977;51.972;7.640;2024-02-14T02:16:42;18.20;81.20
11836;DHT22;5977;51.972;7.640;2024-02-14T02:19:10;18.20;81.10
11836;DHT22;5977;51.972;7.640;2024-02-14T02:21:38;18.20;81.10
11836;DHT22;5977;51.972;7.640;2024-02-14T02:24:08;18.20;81.20
11836;DHT22;5977;51.972;7.640;2024-02-14T02:26:36;18.20;81.00
11836;DHT22;5977;51.972;7.640;2024-02-14T02:29:03;18.20;81.10
11836;DHT22;5977;51.972;7.640;2024-02-14T02:31:33;18.30;81.20
11836;DHT22;5977;51.972;7.640;2024-02-14T02:34:00;18.20;81.00
11836;DHT22;5977;51.972;7.640;2024-02-14T02:36:29;18.20;81.80
11836;DHT22;5977;51.972;7.640;2024-02-14T02:38:57;18.30;81.10
11836;DHT22;5977;51.972;7.640;2024-02-14T02:41:28;18.20;81.10
11836;DHT22;5977;51.972;7.640;2024-02-14T02:43:57;18.20;80.90
11836;DHT22;5977;51.972;7.640;2024-02-14T02:46:25;18.20;81.10
11836;DHT22;5977;51.972;7.640;2024-02-14T02:48:53;18.20;81.10
11836;DHT22;5977;51.972;7.640;2024-02-14T02:51:22;18.20;81.10
11836;DHT22;5977;51.972;7.640;2024-02-14T02:53:50;18.20;81.10
11836;DHT22;5977;51.972;7.640;2024-02-14T02:56:18;18.20;81.00
11836;DHT22;5977;51.972;7.640;2024-02-14T02:58:49;18.20;81.00
11836;DHT22;5977;51.972;7.640;2024-02-14T03:01:17;18.20;80.90
11836;DHT22;5977;51.972;7.640;2024-02-14T03:03:45;18.20;81.10
11836;DHT22;5977;51.972;7.640;2024-02-14T03:06:13;18.20;81.00
11836;DHT22;5977;51.972;7.640;2024-02-14T03:08:41;18.20;81.00
11836;DHT22;5977;51.972;7.640;2024-02-14T03:11:09;18.20;81.00
11836;DHT22;5977;51.972;7.640;2024-02-14T03:13:37;18.20;81.00
11836;DHT22;5977;51.972;7.640;2024-02-14T03:16:08;18.20;81.00
11836;DHT22;5977;51.972;7.640;2024-02-14T03:18:37;18.20;80.90
11836;DHT22;5977;51.972;7.640;2024-02-14T03:21:05;18.20;81.00
11836;DHT22;5977;51.972;7.640;2024-02-14T03:23:34;18.20;81.00
11836;DHT22;5977;51.972;7.640;2024-02-14T03:26:01;18.20;80.90
11836;DHT22;5977;51.972;7.640;2024-02-14T03:28:34;18.20;80.90
11836;DHT22;5977;51.972;7.640;2024-02-14T03:31:02;18.20;80.90
11836;DHT22;5977;51.972;7.640;2024-02-14T03:33:32;18.20;81.00
11836;DHT22;5977;51.972;7.640;2024-02-14T03:36:00;18.20;80.90
11836;DHT22;5977;51.972;7.640;2024-02-14T03:38:28;18.20;81.00
11836;DHT22;5977;51.972;7.640;2024-02-14T03:40:58;18.20;81.00
11836;DHT22;5977;51.972;7.640;2024-02-14T03:43:25;18.20;80.90
11836;DHT22;5977;51.972;7.640;2024-02-14T03:45:54;18.20;81.00
11836;DHT22;5977;51.972;7.640;2024-02-14T03:48:22;18.20;80.90
11836;DHT22;5977;51.972;7.640;2024-02-14T03:50:52;18.20;80.90
11836;DHT22;5977;51.972;7.640;2024-02-14T03:53:20;18.20;80.90
11836;DHT22;5977;51.972;7.640;2024-02-14T03:55:48;18.20;81.00
11836;DHT22;5977;51.972;7.640;2024-02-14T03:58:17;18.20;81.00
11836;DHT22;5977;51.972;7.640;2024-02-14T04:00:49;18.20;81.00
11836;DHT22;5977;51.972;7.640;2024-02-14T04:03:18;18.20;80.90
11836;DHT22;5977;51.972;7.640;2024-02-14T04:05:46;18.20;80.90
11836;DHT22;5977;51.972;7.640;2024-02-14T04:08:16;18.20;81.00
11836;DHT22;5977;51.972;7.640;2024-02-14T04:10:44;18.20;80.80
11836;DHT22;5977;51.972;7.640;2024-02-14T04:13:12;18.20;80.80
11836;DHT22;5977;51.972;7.640;2024-02-14T04:15:40;18.20;80.80
11836;DHT22;5977;51.972;7.640;2024-02-14T04:18:09;18.20;80.90
11836;DHT22;5977;51.972;7.640;2024-02-14T04:20:37;18.20;80.90
11836;DHT22;5977;51.972;7.640;2024-02-14T04:23:05;18.20;81.00
11836;DHT22;5977;51.972;7.640;2024-02-14T04:25:35;18.20;81.00
11836;DHT22;5977;51.972;7.640;2024-02-14T04:28:04;18.20;80.70
11836;DHT22;5977;51.972;7.640;2024-02-14T04:30:32;18.20;80.80
11836;DHT22;5977;51.972;7.640;2024-02-14T04:33:00;18.20;80.80
11836;DHT22;5977;51.972;7.640;2024-02-14T04:35:28;18.20;80.90
11836;DHT22;5977;51.972;7.640;2024-02-14T04:37:56;18.20;81.00
11836;DHT22;5977;51.972;7.640;2024-02-14T04:40:24;18.20;81.10
11836;DHT22;5977;51.972;7.640;2024-02-14T04:42:53;18.20;81.20
11836;DHT22;5977;51.972;7.640;2024-02-14T04:45:21;18.20;81.10
11836;DHT22;5977;51.972;7.640;2024-02-14T04:47:48;18.20;81.30
11836;DHT22;5977;51.972;7.640;2024-02-14T04:50:16;18.20;81.30
11836;DHT22;5977;51.972;7.640;2024-02-14T04:52:45;18.10;81.30
11836;DHT22;5977;51.972;7.640;2024-02-14T04:55:13;18.20;81.40
11836;DHT22;5977;51.972;7.640;2024-02-14T04:57:41;18.20;81.40
11836;DHT22;5977;51.972;7.640;2024-02-14T05:00:12;18.20;81.40
11836;DHT22;5977;51.972;7.640;2024-02-14T05:02:41;18.20;81.30
11836;DHT22;5977;51.972;7.640;2024-02-14T05:05:08;18.10;81.40
11836;DHT22;5977;51.972;7.640;2024-02-14T05:07:37;18.10;81.40
11836;DHT22;5977;51.972;7.640;2024-02-14T05:10:05;18.20;81.50
11836;DHT22;5977;51.972;7.640;2024-02-14T05:12:34;18.20;81.40
11836;DHT22;5977;51.972;7.640;2024-02-14T05:15:02;18.10;81.20
11836;DHT22;5977;51.972;7.640;2024-02-14T05:17:32;18.20;81.40
11836;DHT22;5977;51.972;7.640;2024-02-14T05:20:00;18.20;81.20
11836;DHT22;5977;51.972;7.640;2024-02-14T05:22:28;18.20;81.30
11836;DHT22;5977;51.972;7.640;2024-02-14T05:24:56;18.20;81.30
11836;DHT22;5977;51.972;7.640;2024-02-14T05:27:24;18.20;81.40
11836;DHT22;5977;51.972;7.640;2024-02-14T05:29:51;18.20;81.30
11836;DHT22;5977;51.972;7.640;2024-02-14T05:32:20;18.20;81.20
11836;DHT22;5977;51.972;7.640;2024-02-14T05:34:50;18.20;81.20
11836;DHT22;5977;51.972;7.640;2024-02-14T05:37:18;18.20;81.00
11836;DHT22;5977;51.972;7.640;2024-02-14T05:39:46;18.20;81.10
11836;DHT22;5977;51.972;7.640;2024-02-14T05:42:14;18.20;81.20
11836;DHT22;5977;51.972;7.640;2024-02-14T05:44:42;18.30;81.30
11836;DHT22;5977;51.972;7.640;2024-02-14T05:47:10;18.20;81.40
11836;DHT22;5977;51.972;7.640;2024-02-14T05:49:38;18.20;81.40
11836;DHT22;5977;51.972;7.640;2024-02-14T05:52:08;18.20;81.40
11836;DHT22;5977;51.972;7.640;2024-02-14T05:54:36;18.20;81.30
11836;DHT22;5977;51.972;7.640;2024-02-14T05:57:04;18.20;81.40
11836;DHT22;5977;51.972;7.640;2024-02-14T05:59:33;18.20;81.40
11836;DHT22;5977;51.972;7.640;2024-02-14T06:02:02;18.20;81.40
11836;DHT22;5977;51.972;7.640;2024-02-14T06:04:32;18.20;81.40
11836;DHT22;5977;51.972;7.640;2024-02-14T06:07:00;18.20;81.40
11836;DHT22;5977;51.972;7.640;2024-02-14T06:09:29;18.20;81.40
11836;DHT22;5977;51.972;7.640;2024-02-14T06:11:57;18.20;81.30
11836;DHT22;5977;51.972;7.640;2024-02-14T06:14:25;18.20;81.40
11836;DHT22;5977;51.972;7.640;2024-02-14T06:16:52;18.20;81.40
11836;DHT22;5977;51.972;7.640;2024-02-14T06:19:20;18.20;81.30
11836;DHT22;5977;51.972;7.640;2024-02-14T06:21:49;18.20;81.40
11836;DHT22;5977;51.972;7.640;2024-02-14T06:24:17;18.20;81.30
11836;DHT22;5977;51.972;7.640;2024-02-14T06:26:47;18.20;81.30
11836;DHT22;5977;51.972;7.640;2024-02-14T06:29:14;18.20;81.20
11836;DHT22;5977;51.972;7.640;2024-02-14T06:31:43;18.20;81.30
11836;DHT22;5977;51.972;7.640;2024-02-14T06:34:11;18.20;81.20
11836;DHT22;5977;51.972;7.640;2024-02-14T06:36:39;18.20;81.20
11836;DHT22;5977;51.972;7.640;2024-02-14T06:39:07;18.20;81.90
11836;DHT22;5977;51.972;7.640;2024-02-14T06:41:35;18.20;81.20
11836;DHT22;5977;51.972;7.640;2024-02-14T06:44:05;18.20;81.10
11836;DHT22;5977;51.972;7.640;2024-02-14T06:46:32;18.30;81.00
11836;DHT22;5977;51.972;7.640;2024-02-14T06:49:02;18.20;81.10
11836;DHT22;5977;51.972;7.640;2024-02-14T06:51:30;18.30;81.20
11836;DHT22;5977;51.972;7.640;2024-02-14T06:53:58;18.20;81.10
11836;DHT22;5977;51.972;7.640;2024-02-14T06:56:26;18.20;81.10
11836;DHT22;5977;51.972;7.640;2024-02-14T06:58:54;18.20;81.10
11836;DHT22;5977;51.972;7.640;2024-02-14T07:01:28;18.20;81.10
11836;DHT22;5977;51.972;7.640;2024-02-14T07:03:56;18.20;81.00
11836;DHT22;5977;51.972;7.640;2024-02-14T07:06:24;18.20;81.10
11836;DHT22;5977;51.972;7.640;2024-02-14T07:08:52;18.20;81.10
11836;DHT22;5977;51.972;7.640;2024-02-14T07:11:22;18.20;81.10
11836;DHT22;5977;51.972;7.640;2024-02-14T07:13:50;18.20;81.20
11836;DHT22;5977;51.972;7.640;2024-02-14T07:16:18;18.20;81.30
11836;DHT22;5977;51.972;7.640;2024-02-14T07:18:47;18.20;81.40
11836;DHT22;5977;51.972;7.640;2024-02-14T07:21:16;18.20;81.20
11836;DHT22;5977;51.972;7.640;2024-02-14T07:23:45;18.20;81.40
11836;DHT22;5977;51.972;7.640;2024-02-14T07:26:14;18.20;81.40
11836;DHT22;5977;51.972;7.640;2024-02-14T07:28:42;18.20;81.50
11836;DHT22;5977;51.972;7.640;2024-02-14T07:31:10;18.20;81.50
11836;DHT22;5977;51.972;7.640;2024-02-14T07:33:38;18.20;81.50
11836;DHT22;5977;51.972;7.640;2024-02-14T07:36:09;18.20;81.60
11836;DHT22;5977;51.972;7.640;2024-02-14T07:38:36;18.20;81.50
11836;DHT22;5977;51.972;7.640;2024-02-14T07:41:04;18.20;81.70
11836;DHT22;5977;51.972;7.640;2024-02-14T07:43:32;18.10;81.60
11836;DHT22;5977;51.972;7.640;2024-02-14T07:46:00;18.20;81.80
11836;DHT22;5977;51.972;7.640;2024-02-14T07:48:28;18.10;81.80
11836;DHT22;5977;51.972;7.640;2024-02-14T07:50:56;18.20;81.90
11836;DHT22;5977;51.972;7.640;2024-02-14T07:53:27;18.10;81.80
11836;DHT22;5977;51.972;7.640;2024-02-14T07:55:55;18.10;81.70
11836;DHT22;5977;51.972;7.640;2024-02-14T07:58:23;18.10;81.90
11836;DHT22;5977;51.972;7.640;2024-02-14T08:00:51;18.10;82.00
11836;DHT22;5977;51.972;7.640;2024-02-14T08:03:19;18.10;82.00
11836;DHT22;5977;51.972;7.640;2024-02-14T08:05:47;18.20;82.00
11836;DHT22;5977;51.972;7.640;2024-02-14T08:08:15;18.10;82.00
11836;DHT22;5977;51.972;7.640;2024-02-14T08:10:45;18.20;82.00
11836;DHT22;5977;51.972;7.640;2024-02-14T08:13:12;18.20;81.90
11836;DHT22;5977;51.972;7.640;2024-02-14T08:15:43;18.20;82.00
11836;DHT22;5977;51.972;7.640;2024-02-14T08:18:10;18.20;82.00
11836;DHT22;5977;51.972;7.640;2024-02-14T08:20:39;18.20;82.10
11836;DHT22;5977;51.972;7.640;2024-02-14T08:23:08;18.20;82.10
11836;DHT22;5977;51.972;7.640;2024-02-14T08:25:36;18.20;82.10
11836;DHT22;5977;51.972;7.640;2024-02-14T08:28:05;18.10;82.10
11836;DHT22;5977;51.972;7.640;2024-02-14T08:30:34;18.20;82.10
11836;DHT22;5977;51.972;7.640;2024-02-14T08:33:02;18.20;82.20
11836;DHT22;5977;51.972;7.640;2024-02-14T08:35:30;18.20;82.20
11836;DHT22;5977;51.972;7.640;2024-02-14T08:38:00;18.20;82.20
11836;DHT22;5977;51.972;7.640;2024-02-14T08:40:28;18.20;82.20
11836;DHT22;5977;51.972;7.640;2024-02-14T08:42:56;18.20;82.30
11836;DHT22;5977;51.972;7.640;2024-02-14T08:45:25;18.20;82.30
11836;DHT22;5977;51.972;7.640;2024-02-14T08:47:56;18.20;82.20
11836;DHT22;5977;51.972;7.640;2024-02-14T08:50:24;18.20;82.30
11836;DHT22;5977;51.972;7.640;2024-02-14T08:52:52;18.20;82.20
11836;DHT22;5977;51.972;7.640;2024-02-14T08:55:20;18.20;82.20
11836;DHT22;5977;51.972;7.640;2024-02-14T08:57:48;18.20;82.10
11836;DHT22;5977;51.972;7.640;2024-02-14T09:00:17;18.30;82.10
11836;DHT22;5977;51.972;7.640;2024-02-14T09:02:48;18.30;82.00
11836;DHT22;5977;51.972;7.640;2024-02-14T09:05:16;18.30;82.00
11836;DHT22;5977;51.972;7.640;2024-02-14T09:07:45;18.20;82.00
11836;DHT22;5977;51.972;7.640;2024-02-14T09:10:13;18.20;81.90
11836;DHT22;5977;51.972;7.640;2024-02-14T09:12:41;18.30;82.00
11836;DHT22;5977;51.972;7.640;2024-02-14T09:15:09;18.20;82.10
11836;DHT22;5977;51.972;7.640;2024-02-14T09:17:38;18.20;82.10
11836;DHT22;5977;51.972;7.640;2024-02-14T09:20:10;18.30;82.20
11836;DHT22;5977;51.972;7.640;2024-02-14T09:22:40;18.20;82.10
11836;DHT22;5977;51.972;7.640;2024-02-14T09:25:08;18.20;82.20
11836;DHT22;5977;51.972;7.640;2024-02-14T09:27:37;18.20;82.10
11836;DHT22;5977;51.972;7.640;2024-02-14T09:30:06;18.30;82.20
11836;DHT22;5977;51.972;7.640;2024-02-14T09:32:37;18.20;82.10
11836;DHT22;5977;51.972;7.640;2024-02-14T09:35:06;18.20;82.20
11836;DHT22;5977;51.972;7.640;2024-02-14T09:37:35;18.30;82.20
11836;DHT22;5977;51.972;7.640;2024-02-14T09:40:05;18.30;82.10
11836;DHT22;5977;51.972;7.640;2024-02-14T09:42:38;18.20;82.10
11836;DHT22;5977;51.972;7.640;2024-02-14T09:45:08;18.20;82.10
11836;DHT22;5977;51.972;7.640;2024-02-14T09:47:40;18.20;82.70
11836;DHT22;5977;51.972;7.640;2024-02-14T09:50:09;18.20;82.00
11836;DHT22;5977;51.972;7.640;2024-02-14T09:52:41;18.30;82.00
11836;DHT22;5977;51.972;7.640;2024-02-14T09:55:10;18.30;81.80
11836;DHT22;5977;51.972;7.640;2024-02-14T09:57:41;18.20;81.80
11836;DHT22;5977;51.972;7.640;2024-02-14T10:00:10;18.20;81.60
11836;DHT22;5977;51.972;7.640;2024-02-14T10:02:39;18.20;81.60
11836;DHT22;5977;51.972;7.640;2024-02-14T10:05:07;18.20;81.60
11836;DHT22;5977;51.972;7.640;2024-02-14T10:07:41;18.20;81.50
11836;DHT22;5977;51.972;7.640;2024-02-14T10:10:11;18.20;81.20
11836;DHT22;5977;51.972;7.640;2024-02-14T10:12:41;18.20;81.40
11836;DHT22;5977;51.972;7.640;2024-02-14T10:15:09;18.30;81.30
11836;DHT22;5977;51.972;7.640;2024-02-14T10:17:39;18.30;81.30
11836;DHT22;5977;51.972;7.640;2024-02-14T10:20:09;18.30;81.20
11836;DHT22;5977;51.972;7.640;2024-02-14T10:22:38;18.20;81.10
11836;DHT22;5977;51.972;7.640;2024-02-14T10:25:09;18.20;81.00
11836;DHT22;5977;51.972;7.640;2024-02-14T10:27:37;18.30;80.90
11836;DHT22;5977;51.972;7.640;2024-02-14T10:30:06;18.30;80.90
11836;DHT22;5977;51.972;7.640;2024-02-14T10:32:36;18.30;80.80
11836;DHT22;5977;51.972;7.640;2024-02-14T10:35:06;18.30;80.80
11836;DHT22;5977;51.972;7.640;2024-02-14T10:37:36;18.30;80.70
11836;DHT22;5977;51.972;7.640;2024-02-14T10:40:05;18.30;80.70
11836;DHT22;5977;51.972;7.640;2024-02-14T10:42:34;18.30;80.50
11836;DHT22;5977;51.972;7.640;2024-02-14T10:45:03;18.30;80.50
11836;DHT22;5977;51.972;7.640;2024-02-14T10:47:34;18.30;80.60
11836;DHT22;5977;51.972;7.640;2024-02-14T10:50:05;18.30;80.50
11836;DHT22;5977;51.972;7.640;2024-02-14T10:52:34;18.30;80.50
11836;DHT22;5977;51.972;7.640;2024-02-14T10:55:04;18.30;80.30
11836;DHT22;5977;51.972;7.640;2024-02-14T10:57:32;18.30;80.30
11836;DHT22;5977;51.972;7.640;2024-02-14T11:00:06;18.30;80.40
11836;DHT22;5977;51.972;7.640;2024-02-14T11:02:36;18.30;80.20
11836;DHT22;5977;51.972;7.640;2024-02-14T11:05:05;18.30;80.40
11836;DHT22;5977;51.972;7.640;2024-02-14T11:07:33;18.30;80.50
11836;DHT22;5977;51.972;7.640;2024-02-14T11:10:05;18.30;80.50
11836;DHT22;5977;51.972;7.640;2024-02-14T11:12:34;18.30;80.20
11836;DHT22;5977;51.972;7.640;2024-02-14T11:15:11;18.20;80.30
11836;DHT22;5977;51.972;7.640;2024-02-14T11:17:39;18.30;80.10
11836;DHT22;5977;51.972;7.640;2024-02-14T11:20:16;18.30;80.30
11836;DHT22;5977;51.972;7.640;2024-02-14T11:22:53;18.30;80.00
11836;DHT22;5977;51.972;7.640;2024-02-14T11:25:32;18.30;80.00
11836;DHT22;5977;51.972;7.640;2024-02-14T11:28:02;18.30;79.90
11836;DHT22;5977;51.972;7.640;2024-02-14T11:30:41;18.30;80.20
11836;DHT22;5977;51.972;7.640;2024-02-14T11:33:14;18.30;80.10
11836;DHT22;5977;51.972;7.640;2024-02-14T11:35:43;18.30;80.10
11836;DHT22;5977;51.972;7.640;2024-02-14T11:38:11;18.30;80.20
11836;DHT22;5977;51.972;7.640;2024-02-14T11:40:39;18.30;80.20
11836;DHT22;5977;51.972;7.640;2024-02-14T11:43:11;18.30;80.30
11836;DHT22;5977;51.972;7.640;2024-02-14T11:45:42;18.30;80.10
11836;DHT22;5977;51.972;7.640;2024-02-14T11:48:11;18.30;80.20
11836;DHT22;5977;51.972;7.640;2024-02-14T11:50:40;18.20;80.20
11836;DHT22;5977;51.972;7.640;2024-02-14T11:53:10;18.20;80.30
11836;DHT22;5977;51.972;7.640;2024-02-14T11:55:38;18.30;80.30
11836;DHT22;5977;51.972;7.640;2024-02-14T11:58:07;18.20;80.20
11836;DHT22;5977;51.972;7.640;2024-02-14T12:00:38;18.30;80.20
11836;DHT22;5977;51.972;7.640;2024-02-14T12:03:10;18.20;80.10
11836;DHT22;5977;51.972;7.640;2024-02-14T12:05:39;18.30;80.10
11836;DHT22;5977;51.972;7.640;2024-02-14T12:08:08;18.30;80.20
11836;DHT22;5977;51.972;7.640;2024-02-14T12:10:37;18.30;80.20
11836;DHT22;5977;51.972;7.640;2024-02-14T12:13:07;18.30;80.10
11836;DHT22;5977;51.972;7.640;2024-02-14T12:15:43;18.30;80.00
11836;DHT22;5977;51.972;7.640;2024-02-14T12:18:13;18.30;79.80
11836;DHT22;5977;51.972;7.640;2024-02-14T12:20:42;18.20;79.90
11836;DHT22;5977;51.972;7.640;2024-02-14T12:23:14;18.30;80.10
11836;DHT22;5977;51.972;7.640;2024-02-14T12:25:44;18.20;79.90
11836;DHT22;5977;51.972;7.640;2024-02-14T12:28:14;18.30;80.20
11836;DHT22;5977;51.972;7.640;2024-02-14T12:30:44;18.30;80.20
11836;DHT22;5977;51.972;7.640;2024-02-14T12:33:17;18.30;80.10
11836;DHT22;5977;51.972;7.640;2024-02-14T12:35:48;18.30;80.00
11836;DHT22;5977;51.972;7.640;2024-02-14T12:38:17;18.30;80.00
11836;DHT22;5977;51.972;7.640;2024-02-14T12:40:46;18.30;80.00
11836;DHT22;5977;51.972;7.640;2024-02-14T12:43:15;18.30;80.20
11836;DHT22;5977;51.972;7.640;2024-02-14T12:45:43;18.30;80.20
11836;DHT22;5977;51.972;7.640;2024-02-14T12:48:12;18.30;80.20
11836;DHT22;5977;51.972;7.640;2024-02-14T12:50:43;18.30;80.10
11836;DHT22;5977;51.972;7.640;2024-02-14T12:53:15;18.30;80.00
11836;DHT22;5977;51.972;7.640;2024-02-14T12:55:43;18.30;80.20
11836;DHT22;5977;51.972;7.640;2024-02-14T12:58:11;18.30;80.20
11836;DHT22;5977;51.972;7.640;2024-02-14T13:00:39;18.20;80.10
11836;DHT22;5977;51.972;7.640;2024-02-14T13:03:07;18.20;80.20
11836;DHT22;5977;51.972;7.640;2024-02-14T13:05:39;18.30;80.20
11836;DHT22;5977;51.972;7.640;2024-02-14T13:08:09;18.20;80.10
11836;DHT22;5977;51.972;7.640;2024-02-14T13:10:38;18.20;80.00
11836;DHT22;5977;51.972;7.640;2024-02-14T13:13:06;18.30;80.20
11836;DHT22;5977;51.972;7.640;2024-02-14T13:15:34;18.30;80.20
11836;DHT22;5977;51.972;7.640;2024-02-14T13:18:02;18.30;80.20
11836;DHT22;5977;51.972;7.640;2024-02-14T13:20:30;18.30;80.20
11836;DHT22;5977;51.972;7.640;2024-02-14T13:22:58;18.30;80.20
11836;DHT22;5977;51.972;7.640;2024-02-14T13:25:28;18.20;80.20
11836;DHT22;5977;51.972;7.640;2024-02-14T13:27:55;18.20;80.10
11836;DHT22;5977;51.972;7.640;2024-02-14T13:30:25;18.20;80.20
11836;DHT22;5977;51.972;7.640;2024-02-14T13:32:53;18.30;80.40
11836;DHT22;5977;51.972;7.640;2024-02-14T13:35:22;18.30;80.30
11836;DHT22;5977;51.972;7.640;2024-02-14T13:37:50;18.30;80.30
11836;DHT22;5977;51.972;7.640;2024-02-14T13:40:18;18.30;80.30
11836;DHT22;5977;51.972;7.640;2024-02-14T13:42:47;18.30;80.40
11836;DHT22;5977;51.972;7.640;2024-02-14T13:45:15;18.20;80.10
11836;DHT22;5977;51.972;7.640;2024-02-14T13:47:43;18.30;80.20
11836;DHT22;5977;51.972;7.640;2024-02-14T13:50:13;18.30;80.20
11836;DHT22;5977;51.972;7.640;2024-02-14T13:52:41;18.30;80.10
11836;DHT22;5977;51.972;7.640;2024-02-14T13:55:09;18.30;80.10
11836;DHT22;5977;51.972;7.640;2024-02-14T13:57:38;18.30;80.20
11836;DHT22;5977;51.972;7.640;2024-02-14T14:00:08;18.30;80.10
11836;DHT22;5977;51.972;7.640;2024-02-14T14:02:40;18.30;80.00
11836;DHT22;5977;51.972;7.640;2024-02-14T14:05:10;18.30;80.10
11836;DHT22;5977;51.972;7.640;2024-02-14T14:07:43;18.30;80.10
11836;DHT22;5977;51.972;7.640;2024-02-14T14:10:23;18.30;80.20
11836;DHT22;5977;51.972;7.640;2024-02-14T14:12:52;18.20;80.10
11836;DHT22;5977;51.972;7.640;2024-02-14T14:15:21;18.30;80.20
11836;DHT22;5977;51.972;7.640;2024-02-14T14:17:50;18.20;80.10
11836;DHT22;5977;51.972;7.640;2024-02-14T14:20:19;18.30;80.20
11836;DHT22;5977;51.972;7.640;2024-02-14T14:22:47;18.20;80.20
11836;DHT22;5977;51.972;7.640;2024-02-14T14:25:15;18.30;80.30
11836;DHT22;5977;51.972;7.640;2024-02-14T14:27:45;18.20;80.30
11836;DHT22;5977;51.972;7.640;2024-02-14T14:30:13;18.20;80.30
11836;DHT22;5977;51.972;7.640;2024-02-14T14:32:42;18.30;80.30
11836;DHT22;5977;51.972;7.640;2024-02-14T14:35:10;18.30;80.30
11836;DHT22;5977;51.972;7.640;2024-02-14T14:37:39;18.20;80.30
11836;DHT22;5977;51.972;7.640;2024-02-14T14:40:07;18.30;80.40
11836;DHT22;5977;51.972;7.640;2024-02-14T14:42:37;18.30;80.20
11836;DHT22;5977;51.972;7.640;2024-02-14T14:45:05;18.40;80.20
11836;DHT22;5977;51.972;7.640;2024-02-14T14:47:33;18.30;80.00
11836;DHT22;5977;51.972;7.640;2024-02-14T14:50:03;18.40;80.20
11836;DHT22;5977;51.972;7.640;2024-02-14T14:52:32;18.40;80.10
11836;DHT22;5977;51.972;7.640;2024-02-14T14:55:00;18.40;80.40
11836;DHT22;5977;51.972;7.640;2024-02-14T14:57:28;18.40;81.20
11836;DHT22;5977;51.972;7.640;2024-02-14T14:59:56;18.40;80.60
11836;DHT22;5977;51.972;7.640;2024-02-14T15:02:24;18.40;80.60
11836;DHT22;5977;51.972;7.640;2024-02-14T15:04:52;18.40;80.60
11836;DHT22;5977;51.972;7.640;2024-02-14T15:07:22;18.40;80.70
11836;DHT22;5977;51.972;7.640;2024-02-14T15:09:49;18.40;80.60
11836;DHT22;5977;51.972;7.640;2024-02-14T15:12:17;18.40;80.80
11836;DHT22;5977;51.972;7.640;2024-02-14T15:14:45;18.40;80.80
11836;DHT22;5977;51.972;7.640;2024-02-14T15:17:13;18.40;80.80
11836;DHT22;5977;51.972;7.640;2024-02-14T15:19:41;18.40;80.90
11836;DHT22;5977;51.972;7.640;2024-02-14T15:22:09;18.40;81.00
11836;DHT22;5977;51.972;7.640;2024-02-14T15:24:38;18.40;81.10
11836;DHT22;5977;51.972;7.640;2024-02-14T15:27:09;18.40;80.90
11836;DHT22;5977;51.972;7.640;2024-02-14T15:29:40;18.40;81.10
11836;DHT22;5977;51.972;7.640;2024-02-14T15:32:26;18.40;81.10
11836;DHT22;5977;51.972;7.640;2024-02-14T15:35:11;18.40;81.20
11836;DHT22;5977;51.972;7.640;2024-02-14T15:37:39;18.40;81.10
11836;DHT22;5977;51.972;7.640;2024-02-14T15:40:11;18.40;81.30
11836;DHT22;5977;51.972;7.640;2024-02-14T15:42:39;18.40;81.10
11836;DHT22;5977;51.972;7.640;2024-02-14T15:45:08;18.40;81.30
11836;DHT22;5977;51.972;7.640;2024-02-14T15:47:38;18.30;81.20
11836;DHT22;5977;51.972;7.640;2024-02-14T15:50:06;18.40;82.10
11836;DHT22;5977;51.972;7.640;2024-02-14T15:52:34;18.40;81.40
11836;DHT22;5977;51.972;7.640;2024-02-14T15:55:02;18.40;81.40